Annandale, VA

8:13 AM EDT on October 01, 2014 (GMT -0400)
Broyhill Crest | Change Station
CLOSE
Current Station
Personal Weather Station
Location: Annandale, VA
Elevation: 315 ft
Nearby Weather Stations

Elev 315 ft 38.84 °N, 77.19 °W | Updated 17 seconds ago

Mostly Cloudy
Mostly Cloudy
63.0 °F
Feels Like 63.0 °F
N
0.0
Wind Variable Wind from North
Gusts 2.2 mph

Today
High -- | Low -- °F
--% Chance of Precip.
Yesterday
High -- | Low -- °F
Precip. -- in
7:04 AM 6:51 PM
Waxing Crescent, 47% visible
Pressure 30.01 in
Visibility 10.0 miles
Clouds Few 2400 ft
Dew Point 62 °F
Humidity 97%
Rainfall 0.02 in
Snow Depth Not available.
UV 0 out of 12
Pollen 2.90 out of 12
Ozone Good
PM2.5 Good
Flu Activity Not available.
METAR KDAA 011158Z AUTO 00000KT 10SM -DZ FEW024 18/17 A3000 RMK AO2 RAE1109DZB1109 SLP162 P0000 60000 T01750166 10187 20173 52016

More Conditions Fewer Conditions

Pressure 30.01 in
Visibility 10.0 miles
Clouds Few 2400 ft
Dew Point 62 °F
Humidity 97%
Rainfall 0.02 in
Snow Depth Not available.
UV 0 out of 12
Pollen 2.90 out of 12
Ozone Good
PM2.5 Good
Flu Activity Not available.
METAR KDAA 011158Z AUTO 00000KT 10SM -DZ FEW024 18/17 A3000 RMK AO2 RAE1109DZB1109 SLP162 P0000 60000 T01750166 10187 20173 52016

More Conditions Fewer Conditions

10-Day Weather Forecast

Almanac

Astronomy

Oct. 01, 2014 Rise Set
Actual Time 7:04 AM EDT 6:51 PM EDT
Civil Twilight 6:38 AM EDT 7:18 PM EDT
Nautical Twilight 6:07 AM EDT 7:48 PM EDT
Astronomical Twilight 5:36 AM EDT 8:20 PM EDT
Moon 2:01 PM EDT No Moon Set
Length of Visible Light 12h 39m
Length of Day
11h 46m
Tomorrow will be 2m 30s shorter.
Waxing Crescent, 47% of the Moon is Illuminated
Today
Waxing Crescent
Oct 1
First Quarter
Oct 8
Full
Oct 15
Last Quarter
Oct 23
New

Today's Extremes

State Highs State Lows

Community

WunderPhotos

Upload Photos

1,757,914 photos uploaded!

WunderBlogs® & News

Nearby

Air Quality

  Air Quality AQ Index Pollutant
Yesterday Good
PM10
Yesterday Good
OZONE
Current Good
PM2.5
Current Good
OZONE
Wednesday Moderate
PM2.5
Thursday Moderate
PM2.5
Friday Good
PM2.5

Snow Depth

Station Depth Elevation
No new snow has been reported.

Earthquake Activity

City Distance Mag. Time & Date
No recent earthquake activity has been reported nearby.
Minimum magnitude displayed is 2.5.

Coastal Water Temperatures

Place Temperature
Washington, DC 71.1 °F
Baltimore, MD 73.9 °F
Solomons Island, MD 72.0 °F

Nearby Weather Stations